sensor_id;sensor_type;location;lat;lon;timestamp;temperature;humidity
7894;DHT22;51343;51.396;6.656;2023-05-10T00:00:43;13.00;99.90
7894;DHT22;51343;51.396;6.656;2023-05-10T00:03:10;13.00;99.90
7894;DHT22;51343;51.396;6.656;2023-05-10T00:05:36;12.90;99.90
7894;DHT22;51343;51.396;6.656;2023-05-10T00:08:05;12.90;99.90
7894;DHT22;51343;51.396;6.656;2023-05-10T00:10:32;12.90;99.90
7894;DHT22;51343;51.396;6.656;2023-05-10T00:13:00;12.90;99.90
7894;DHT22;51343;51.396;6.656;2023-05-10T00:15:26;12.90;99.90
7894;DHT22;51343;51.396;6.656;2023-05-10T00:17:53;12.90;99.90
7894;DHT22;51343;51.396;6.656;2023-05-10T00:20:20;12.90;99.90
7894;DHT22;51343;51.396;6.656;2023-05-10T00:22:46;12.90;99.90
7894;DHT22;51343;51.396;6.656;2023-05-10T00:25:14;12.90;99.90
7894;DHT22;51343;51.396;6.656;2023-05-10T00:27:41;12.80;99.90
7894;DHT22;51343;51.396;6.656;2023-05-10T00:30:08;12.80;99.90
7894;DHT22;51343;51.396;6.656;2023-05-10T00:32:35;12.80;99.90
7894;DHT22;51343;51.396;6.656;2023-05-10T00:35:01;12.80;99.90
7894;DHT22;51343;51.396;6.656;2023-05-10T00:37:28;12.80;99.90
7894;DHT22;51343;51.396;6.656;2023-05-10T00:39:54;12.80;99.90
7894;DHT22;51343;51.396;6.656;2023-05-10T00:42:22;12.80;99.90
7894;DHT22;51343;51.396;6.656;2023-05-10T00:44:49;12.80;99.90
7894;DHT22;51343;51.396;6.656;2023-05-10T00:47:16;12.80;99.90
7894;DHT22;51343;51.396;6.656;2023-05-10T00:49:43;12.80;99.90
7894;DHT22;51343;51.396;6.656;2023-05-10T00:52:09;12.80;99.90
7894;DHT22;51343;51.396;6.656;2023-05-10T00:54:36;12.80;99.90
7894;DHT22;51343;51.396;6.656;2023-05-10T00:57:03;12.80;99.90
7894;DHT22;51343;51.396;6.656;2023-05-10T00:59:31;12.80;99.90
7894;DHT22;51343;51.396;6.656;2023-05-10T01:01:58;12.80;99.90
7894;DHT22;51343;51.396;6.656;2023-05-10T01:04:24;12.80;99.90
7894;DHT22;51343;51.396;6.656;2023-05-10T01:06:51;12.70;99.90
7894;DHT22;51343;51.396;6.656;2023-05-10T01:09:18;12.70;99.90
7894;DHT22;51343;51.396;6.656;2023-05-10T01:11:45;12.70;99.90
7894;DHT22;51343;51.396;6.656;2023-05-10T01:14:12;12.70;99.90
7894;DHT22;51343;51.396;6.656;2023-05-10T01:16:40;12.70;99.90
7894;DHT22;51343;51.396;6.656;2023-05-10T01:19:10;12.70;99.90
7894;DHT22;51343;51.396;6.656;2023-05-10T01:21:42;12.60;99.90
7894;DHT22;51343;51.396;6.656;2023-05-10T01:24:12;12.70;99.90
7894;DHT22;51343;51.396;6.656;2023-05-10T01:29:37;12.60;99.90
7894;DHT22;51343;51.396;6.656;2023-05-10T01:32:16;12.70;99.90
7894;DHT22;51343;51.396;6.656;2023-05-10T01:34:48;12.70;99.90
7894;DHT22;51343;51.396;6.656;2023-05-10T01:37:20;12.70;99.90
7894;DHT22;51343;51.396;6.656;2023-05-10T01:39:49;12.70;99.90
7894;DHT22;51343;51.396;6.656;2023-05-10T01:42:21;12.60;99.90
7894;DHT22;51343;51.396;6.656;2023-05-10T01:44:49;12.60;99.90
7894;DHT22;51343;51.396;6.656;2023-05-10T01:47:23;12.60;99.90
7894;DHT22;51343;51.396;6.656;2023-05-10T01:49:53;12.60;99.90
7894;DHT22;51343;51.396;6.656;2023-05-10T01:52:22;12.60;99.90
7894;DHT22;51343;51.396;6.656;2023-05-10T01:54:53;12.60;99.90
7894;DHT22;51343;51.396;6.656;2023-05-10T01:57:22;12.70;99.90
7894;DHT22;51343;51.396;6.656;2023-05-10T01:59:52;12.60;99.90
7894;DHT22;51343;51.396;6.656;2023-05-10T02:02:20;12.60;99.90
7894;DHT22;51343;51.396;6.656;2023-05-10T02:04:47;12.60;99.90
7894;DHT22;51343;51.396;6.656;2023-05-10T02:07:15;12.60;99.90
7894;DHT22;51343;51.396;6.656;2023-05-10T02:09:43;12.60;99.90
7894;DHT22;51343;51.396;6.656;2023-05-10T02:12:12;12.60;99.90
7894;DHT22;51343;51.396;6.656;2023-05-10T02:14:40;12.60;99.90
7894;DHT22;51343;51.396;6.656;2023-05-10T02:17:07;12.70;99.90
7894;DHT22;51343;51.396;6.656;2023-05-10T02:19:36;12.70;99.90
7894;DHT22;51343;51.396;6.656;2023-05-10T02:22:04;12.70;99.90
7894;DHT22;51343;51.396;6.656;2023-05-10T02:24:31;12.70;99.90
7894;DHT22;51343;51.396;6.656;2023-05-10T02:26:58;12.70;99.90
7894;DHT22;51343;51.396;6.656;2023-05-10T02:29:25;12.70;99.90
7894;DHT22;51343;51.396;6.656;2023-05-10T02:31:53;12.70;99.90
7894;DHT22;51343;51.396;6.656;2023-05-10T02:34:21;12.70;99.90
7894;DHT22;51343;51.396;6.656;2023-05-10T02:36:49;12.70;99.90
7894;DHT22;51343;51.396;6.656;2023-05-10T02:39:17;12.70;99.90
7894;DHT22;51343;51.396;6.656;2023-05-10T02:41:45;12.70;99.90
7894;DHT22;51343;51.396;6.656;2023-05-10T02:44:12;12.70;99.90
7894;DHT22;51343;51.396;6.656;2023-05-10T02:46:40;12.70;99.90
7894;DHT22;51343;51.396;6.656;2023-05-10T02:49:08;12.70;99.90
7894;DHT22;51343;51.396;6.656;2023-05-10T02:51:35;12.70;99.90
7894;DHT22;51343;51.396;6.656;2023-05-10T02:54:06;12.70;99.90
7894;DHT22;51343;51.396;6.656;2023-05-10T02:56:36;12.70;99.90
7894;DHT22;51343;51.396;6.656;2023-05-10T02:59:07;12.70;99.90
7894;DHT22;51343;51.396;6.656;2023-05-10T03:01:33;12.70;99.90
7894;DHT22;51343;51.396;6.656;2023-05-10T03:04:00;12.60;99.90
7894;DHT22;51343;51.396;6.656;2023-05-10T03:06:27;12.70;99.90
7894;DHT22;51343;51.396;6.656;2023-05-10T03:08:54;12.70;99.90
7894;DHT22;51343;51.396;6.656;2023-05-10T03:11:28;12.70;99.90
7894;DHT22;51343;51.396;6.656;2023-05-10T03:14:00;12.70;99.90
7894;DHT22;51343;51.396;6.656;2023-05-10T03:16:29;12.70;99.90
7894;DHT22;51343;51.396;6.656;2023-05-10T03:19:00;12.70;99.90
7894;DHT22;51343;51.396;6.656;2023-05-10T03:21:28;12.70;99.90
7894;DHT22;51343;51.396;6.656;2023-05-10T03:23:58;12.60;99.90
7894;DHT22;51343;51.396;6.656;2023-05-10T03:26:27;12.60;99.90
7894;DHT22;51343;51.396;6.656;2023-05-10T03:28:55;12.60;99.90
7894;DHT22;51343;51.396;6.656;2023-05-10T03:31:21;12.60;99.90
7894;DHT22;51343;51.396;6.656;2023-05-10T03:33:48;12.60;99.90
7894;DHT22;51343;51.396;6.656;2023-05-10T03:36:15;12.70;99.90
7894;DHT22;51343;51.396;6.656;2023-05-10T03:38:41;12.70;99.90
7894;DHT22;51343;51.396;6.656;2023-05-10T03:41:08;12.60;99.90
7894;DHT22;51343;51.396;6.656;2023-05-10T03:43:36;12.60;99.90
7894;DHT22;51343;51.396;6.656;2023-05-10T03:46:03;12.70;99.90
7894;DHT22;51343;51.396;6.656;2023-05-10T03:48:29;12.70;99.90
7894;DHT22;51343;51.396;6.656;2023-05-10T03:50:56;12.70;99.90
7894;DHT22;51343;51.396;6.656;2023-05-10T03:53:23;12.70;99.90
7894;DHT22;51343;51.396;6.656;2023-05-10T03:55:49;12.70;99.90
7894;DHT22;51343;51.396;6.656;2023-05-10T03:58:16;12.80;99.90
7894;DHT22;51343;51.396;6.656;2023-05-10T04:00:45;12.70;99.90
7894;DHT22;51343;51.396;6.656;2023-05-10T04:03:11;12.80;99.90
7894;DHT22;51343;51.396;6.656;2023-05-10T04:05:38;12.80;99.90
7894;DHT22;51343;51.396;6.656;2023-05-10T04:08:05;12.80;99.90
7894;DHT22;51343;51.396;6.656;2023-05-10T04:10:32;12.80;99.90
7894;DHT22;51343;51.396;6.656;2023-05-10T04:12:58;12.80;99.90
7894;DHT22;51343;51.396;6.656;2023-05-10T04:15:25;12.80;99.90
7894;DHT22;51343;51.396;6.656;2023-05-10T04:17:53;12.80;99.90
7894;DHT22;51343;51.396;6.656;2023-05-10T04:20:21;12.80;99.90
7894;DHT22;51343;51.396;6.656;2023-05-10T04:22:47;12.90;99.90
7894;DHT22;51343;51.396;6.656;2023-05-10T04:25:14;12.90;99.90
7894;DHT22;51343;51.396;6.656;2023-05-10T04:27:41;12.90;99.90
7894;DHT22;51343;51.396;6.656;2023-05-10T04:30:08;12.90;99.90
7894;DHT22;51343;51.396;6.656;2023-05-10T04:32:35;12.90;99.90
7894;DHT22;51343;51.396;6.656;2023-05-10T04:35:03;12.90;99.90
7894;DHT22;51343;51.396;6.656;2023-05-10T04:37:30;12.90;99.90
7894;DHT22;51343;51.396;6.656;2023-05-10T04:39:56;12.90;99.90
7894;DHT22;51343;51.396;6.656;2023-05-10T04:42:25;12.90;99.90
7894;DHT22;51343;51.396;6.656;2023-05-10T04:44:51;12.90;99.90
7894;DHT22;51343;51.396;6.656;2023-05-10T04:47:18;12.90;99.90
7894;DHT22;51343;51.396;6.656;2023-05-10T04:49:44;12.90;99.90
7894;DHT22;51343;51.396;6.656;2023-05-10T04:52:12;12.90;99.90
7894;DHT22;51343;51.396;6.656;2023-05-10T04:54:40;12.90;99.90
7894;DHT22;51343;51.396;6.656;2023-05-10T04:57:06;13.00;99.90
7894;DHT22;51343;51.396;6.656;2023-05-10T04:59:35;13.00;99.90
7894;DHT22;51343;51.396;6.656;2023-05-10T05:02:01;13.00;99.90
7894;DHT22;51343;51.396;6.656;2023-05-10T05:04:29;13.00;99.90
7894;DHT22;51343;51.396;6.656;2023-05-10T05:06:56;13.00;99.90
7894;DHT22;51343;51.396;6.656;2023-05-10T05:09:24;13.00;99.90
7894;DHT22;51343;51.396;6.656;2023-05-10T05:11:51;13.10;99.90
7894;DHT22;51343;51.396;6.656;2023-05-10T05:14:17;13.10;99.90
7894;DHT22;51343;51.396;6.656;2023-05-10T05:16:46;13.10;99.90
7894;DHT22;51343;51.396;6.656;2023-05-10T05:19:12;13.10;99.90
7894;DHT22;51343;51.396;6.656;2023-05-10T05:21:39;13.20;99.90
7894;DHT22;51343;51.396;6.656;2023-05-10T05:24:06;13.20;99.90
7894;DHT22;51343;51.396;6.656;2023-05-10T05:26:34;13.20;99.90
7894;DHT22;51343;51.396;6.656;2023-05-10T05:29:01;13.20;99.90
7894;DHT22;51343;51.396;6.656;2023-05-10T05:31:28;13.20;99.90
7894;DHT22;51343;51.396;6.656;2023-05-10T05:33:54;13.20;99.90
7894;DHT22;51343;51.396;6.656;2023-05-10T05:36:21;13.20;99.90
7894;DHT22;51343;51.396;6.656;2023-05-10T05:38:48;13.20;99.90
7894;DHT22;51343;51.396;6.656;2023-05-10T05:41:14;13.20;99.90
7894;DHT22;51343;51.396;6.656;2023-05-10T05:43:42;13.20;99.90
7894;DHT22;51343;51.396;6.656;2023-05-10T05:46:09;13.30;99.90
7894;DHT22;51343;51.396;6.656;2023-05-10T05:48:36;13.30;99.90
7894;DHT22;51343;51.396;6.656;2023-05-10T05:51:02;13.30;99.90
7894;DHT22;51343;51.396;6.656;2023-05-10T05:53:29;13.20;99.90
7894;DHT22;51343;51.396;6.656;2023-05-10T05:55:56;13.20;99.90
7894;DHT22;51343;51.396;6.656;2023-05-10T05:58:23;13.20;99.90
7894;DHT22;51343;51.396;6.656;2023-05-10T06:00:51;13.20;99.90
7894;DHT22;51343;51.396;6.656;2023-05-10T06:03:18;13.20;99.90
7894;DHT22;51343;51.396;6.656;2023-05-10T06:05:45;13.20;99.90
7894;DHT22;51343;51.396;6.656;2023-05-10T06:08:12;13.20;99.90
7894;DHT22;51343;51.396;6.656;2023-05-10T06:10:38;13.20;99.90
7894;DHT22;51343;51.396;6.656;2023-05-10T06:13:05;13.20;99.90
7894;DHT22;51343;51.396;6.656;2023-05-10T06:15:32;13.20;99.90
7894;DHT22;51343;51.396;6.656;2023-05-10T06:18:00;13.20;99.90
7894;DHT22;51343;51.396;6.656;2023-05-10T06:20:26;13.20;99.90
7894;DHT22;51343;51.396;6.656;2023-05-10T06:22:53;13.30;99.90
7894;DHT22;51343;51.396;6.656;2023-05-10T06:25:20;13.30;99.90
7894;DHT22;51343;51.396;6.656;2023-05-10T06:27:47;13.40;99.90
7894;DHT22;51343;51.396;6.656;2023-05-10T06:30:14;13.40;99.90
7894;DHT22;51343;51.396;6.656;2023-05-10T06:32:41;13.40;99.90
7894;DHT22;51343;51.396;6.656;2023-05-10T06:35:10;13.40;99.90
7894;DHT22;51343;51.396;6.656;2023-05-10T06:37:37;13.40;99.90
7894;DHT22;51343;51.396;6.656;2023-05-10T06:40:04;13.40;99.90
7894;DHT22;51343;51.396;6.656;2023-05-10T06:42:31;13.40;99.90
7894;DHT22;51343;51.396;6.656;2023-05-10T06:44:57;13.40;99.90
7894;DHT22;51343;51.396;6.656;2023-05-10T06:47:24;13.50;99.90
7894;DHT22;51343;51.396;6.656;2023-05-10T06:49:51;13.50;99.90
7894;DHT22;51343;51.396;6.656;2023-05-10T06:52:20;13.50;99.90
7894;DHT22;51343;51.396;6.656;2023-05-10T06:54:46;13.50;99.90
7894;DHT22;51343;51.396;6.656;2023-05-10T06:57:13;13.40;99.90
7894;DHT22;51343;51.396;6.656;2023-05-10T06:59:40;13.40;99.90
7894;DHT22;51343;51.396;6.656;2023-05-10T07:02:06;13.40;99.90
7894;DHT22;51343;51.396;6.656;2023-05-10T07:04:33;13.40;99.90
7894;DHT22;51343;51.396;6.656;2023-05-10T07:07:01;13.40;99.90
7894;DHT22;51343;51.396;6.656;2023-05-10T07:09:29;13.40;99.90
7894;DHT22;51343;51.396;6.656;2023-05-10T07:11:56;13.50;99.90
7894;DHT22;51343;51.396;6.656;2023-05-10T07:14:23;13.60;99.90
7894;DHT22;51343;51.396;6.656;2023-05-10T07:16:49;13.60;99.90
7894;DHT22;51343;51.396;6.656;2023-05-10T07:19:16;13.60;99.90
7894;DHT22;51343;51.396;6.656;2023-05-10T07:21:43;13.70;99.90
7894;DHT22;51343;51.396;6.656;2023-05-10T07:24:09;13.90;99.90
7894;DHT22;51343;51.396;6.656;2023-05-10T07:26:37;14.10;99.90
7894;DHT22;51343;51.396;6.656;2023-05-10T07:29:04;14.30;99.90
7894;DHT22;51343;51.396;6.656;2023-05-10T07:31:31;14.40;99.90
7894;DHT22;51343;51.396;6.656;2023-05-10T07:33:57;14.50;99.90
7894;DHT22;51343;51.396;6.656;2023-05-10T07:36:24;14.50;99.90
7894;DHT22;51343;51.396;6.656;2023-05-10T07:38:51;14.40;99.90
7894;DHT22;51343;51.396;6.656;2023-05-10T07:41:18;14.30;99.90
7894;DHT22;51343;51.396;6.656;2023-05-10T07:43:47;14.40;99.90
7894;DHT22;51343;51.396;6.656;2023-05-10T07:46:14;14.50;99.90
7894;DHT22;51343;51.396;6.656;2023-05-10T07:48:40;14.50;99.90
7894;DHT22;51343;51.396;6.656;2023-05-10T07:51:07;14.70;99.90
7894;DHT22;51343;51.396;6.656;2023-05-10T07:53:34;14.80;99.90
7894;DHT22;51343;51.396;6.656;2023-05-10T07:58:45;15.00;99.90
7894;DHT22;51343;51.396;6.656;2023-05-10T08:01:13;15.00;99.90
7894;DHT22;51343;51.396;6.656;2023-05-10T08:03:40;15.10;99.90
7894;DHT22;51343;51.396;6.656;2023-05-10T08:06:07;15.10;99.90
7894;DHT22;51343;51.396;6.656;2023-05-10T08:08:33;15.10;99.90
7894;DHT22;51343;51.396;6.656;2023-05-10T08:11:00;15.00;99.90
7894;DHT22;51343;51.396;6.656;2023-05-10T08:13:27;15.10;99.90
7894;DHT22;51343;51.396;6.656;2023-05-10T08:15:53;15.00;99.90
7894;DHT22;51343;51.396;6.656;2023-05-10T08:18:22;15.00;99.90
7894;DHT22;51343;51.396;6.656;2023-05-10T08:20:48;15.00;99.90
7894;DHT22;51343;51.396;6.656;2023-05-10T08:23:16;15.00;99.90
7894;DHT22;51343;51.396;6.656;2023-05-10T08:25:43;15.20;99.90
7894;DHT22;51343;51.396;6.656;2023-05-10T08:28:09;15.30;99.90
7894;DHT22;51343;51.396;6.656;2023-05-10T08:30:36;15.20;99.90
7894;DHT22;51343;51.396;6.656;2023-05-10T08:33:03;15.20;99.90
7894;DHT22;51343;51.396;6.656;2023-05-10T08:35:31;15.20;99.90
7894;DHT22;51343;51.396;6.656;2023-05-10T08:37:58;15.00;99.90
7894;DHT22;51343;51.396;6.656;2023-05-10T08:40:25;15.10;99.90
7894;DHT22;51343;51.396;6.656;2023-05-10T08:42:54;15.10;99.90
7894;DHT22;51343;51.396;6.656;2023-05-10T08:45:22;15.20;99.90
7894;DHT22;51343;51.396;6.656;2023-05-10T08:47:49;15.30;99.90
7894;DHT22;51343;51.396;6.656;2023-05-10T08:50:16;15.40;99.90
7894;DHT22;51343;51.396;6.656;2023-05-10T08:52:45;15.50;93.60
7894;DHT22;51343;51.396;6.656;2023-05-10T08:55:14;15.50;31.80
7894;DHT22;51343;51.396;6.656;2023-05-10T08:57:41;15.50;82.00
7894;DHT22;51343;51.396;6.656;2023-05-10T09:00:08;15.50;97.10
7894;DHT22;51343;51.396;6.656;2023-05-10T09:02:36;15.50;99.90
7894;DHT22;51343;51.396;6.656;2023-05-10T09:05:03;15.40;53.00
7894;DHT22;51343;51.396;6.656;2023-05-10T09:07:30;15.30;50.70
7894;DHT22;51343;51.396;6.656;2023-05-10T09:09:59;15.30;1.00
7894;DHT22;51343;51.396;6.656;2023-05-10T09:12:26;15.30;1.00
7894;DHT22;51343;51.396;6.656;2023-05-10T09:14:53;15.20;99.90
7894;DHT22;51343;51.396;6.656;2023-05-10T09:17:20;15.20;1.00
7894;DHT22;51343;51.396;6.656;2023-05-10T09:19:48;15.30;99.90
7894;DHT22;51343;51.396;6.656;2023-05-10T09:22:14;15.20;1.00
7894;DHT22;51343;51.396;6.656;2023-05-10T09:24:42;15.30;1.00
7894;DHT22;51343;51.396;6.656;2023-05-10T09:27:12;15.40;99.90
7894;DHT22;51343;51.396;6.656;2023-05-10T09:29:38;15.40;99.90
7894;DHT22;51343;51.396;6.656;2023-05-10T09:32:05;15.40;1.00
7894;DHT22;51343;51.396;6.656;2023-05-10T09:34:32;15.30;1.00
7894;DHT22;51343;51.396;6.656;2023-05-10T09:37:00;15.10;66.70
7894;DHT22;51343;51.396;6.656;2023-05-10T09:39:31;15.00;1.00
7894;DHT22;51343;51.396;6.656;2023-05-10T09:41:58;15.00;99.90
7894;DHT22;51343;51.396;6.656;2023-05-10T09:44:27;15.00;1.00
7894;DHT22;51343;51.396;6.656;2023-05-10T09:46:54;14.90;99.90
7894;DHT22;51343;51.396;6.656;2023-05-10T09:49:21;14.90;1.00
7894;DHT22;51343;51.396;6.656;2023-05-10T09:51:47;14.90;99.90
7894;DHT22;51343;51.396;6.656;2023-05-10T09:54:23;14.70;1.00
7894;DHT22;51343;51.396;6.656;2023-05-10T09:56:50;14.70;1.00
7894;DHT22;51343;51.396;6.656;2023-05-10T09:59:17;14.60;99.90
7894;DHT22;51343;51.396;6.656;2023-05-10T10:01:50;14.70;1.00
7894;DHT22;51343;51.396;6.656;2023-05-10T10:04:17;14.70;1.00
7894;DHT22;51343;51.396;6.656;2023-05-10T10:06:43;14.70;1.00
7894;DHT22;51343;51.396;6.656;2023-05-10T10:09:10;14.60;99.90
7894;DHT22;51343;51.396;6.656;2023-05-10T10:11:37;14.60;1.00
7894;DHT22;51343;51.396;6.656;2023-05-10T10:14:04;14.70;99.90
7894;DHT22;51343;51.396;6.656;2023-05-10T10:16:31;14.70;1.00
7894;DHT22;51343;51.396;6.656;2023-05-10T10:18:59;14.80;1.00
7894;DHT22;51343;51.396;6.656;2023-05-10T10:21:26;14.90;1.00
7894;DHT22;51343;51.396;6.656;2023-05-10T10:23:53;15.00;1.00
7894;DHT22;51343;51.396;6.656;2023-05-10T10:26:21;15.00;99.90
7894;DHT22;51343;51.396;6.656;2023-05-10T10:28:49;15.00;1.00
7894;DHT22;51343;51.396;6.656;2023-05-10T10:31:21;15.10;99.90
7894;DHT22;51343;51.396;6.656;2023-05-10T10:34:01;15.10;1.00
7894;DHT22;51343;51.396;6.656;2023-05-10T10:36:30;14.90;99.90
7894;DHT22;51343;51.396;6.656;2023-05-10T10:38:58;14.80;1.00
7894;DHT22;51343;51.396;6.656;2023-05-10T10:41:30;14.70;1.00
7894;DHT22;51343;51.396;6.656;2023-05-10T10:49:25;14.50;1.00
7894;DHT22;51343;51.396;6.656;2023-05-10T10:54:38;14.60;1.00
7894;DHT22;51343;51.396;6.656;2023-05-10T10:57:10;14.70;1.00
7894;DHT22;51343;51.396;6.656;2023-05-10T10:59:41;14.90;1.00
7894;DHT22;51343;51.396;6.656;2023-05-10T11:02:08;15.00;94.50
7894;DHT22;51343;51.396;6.656;2023-05-10T11:04:42;15.10;1.00
7894;DHT22;51343;51.396;6.656;2023-05-10T11:07:17;15.20;99.90
7894;DHT22;51343;51.396;6.656;2023-05-10T11:09:45;15.30;99.90
7894;DHT22;51343;51.396;6.656;2023-05-10T11:12:13;15.30;82.80
7894;DHT22;51343;51.396;6.656;2023-05-10T11:14:39;15.40;99.90
7894;DHT22;51343;51.396;6.656;2023-05-10T11:22:52;15.90;99.90
7894;DHT22;51343;51.396;6.656;2023-05-10T11:25:18;15.90;99.90
7894;DHT22;51343;51.396;6.656;2023-05-10T11:27:46;15.80;99.90
7894;DHT22;51343;51.396;6.656;2023-05-10T11:30:13;15.60;99.90
7894;DHT22;51343;51.396;6.656;2023-05-10T11:32:40;15.60;99.90
7894;DHT22;51343;51.396;6.656;2023-05-10T11:35:07;15.50;1.00
7894;DHT22;51343;51.396;6.656;2023-05-10T11:37:34;15.60;1.00
7894;DHT22;51343;51.396;6.656;2023-05-10T11:40:02;15.50;1.00
7894;DHT22;51343;51.396;6.656;2023-05-10T11:42:30;15.40;1.00
7894;DHT22;51343;51.396;6.656;2023-05-10T11:44:57;15.20;1.00
7894;DHT22;51343;51.396;6.656;2023-05-10T11:47:23;15.20;1.00
7894;DHT22;51343;51.396;6.656;2023-05-10T11:49:50;15.20;1.00
7894;DHT22;51343;51.396;6.656;2023-05-10T11:52:18;15.30;1.00
7894;DHT22;51343;51.396;6.656;2023-05-10T11:54:45;15.50;1.00
7894;DHT22;51343;51.396;6.656;2023-05-10T11:57:14;15.60;99.90
7894;DHT22;51343;51.396;6.656;2023-05-10T11:59:40;15.70;1.00
7894;DHT22;51343;51.396;6.656;2023-05-10T12:02:07;15.80;99.90
7894;DHT22;51343;51.396;6.656;2023-05-10T12:04:34;15.90;38.10
7894;DHT22;51343;51.396;6.656;2023-05-10T12:07:00;15.90;1.00
7894;DHT22;51343;51.396;6.656;2023-05-10T12:09:27;15.90;1.00
7894;DHT22;51343;51.396;6.656;2023-05-10T12:11:55;15.90;1.00
7894;DHT22;51343;51.396;6.656;2023-05-10T12:14:23;16.00;1.00
7894;DHT22;51343;51.396;6.656;2023-05-10T12:16:51;16.10;1.00
7894;DHT22;51343;51.396;6.656;2023-05-10T12:19:18;16.20;1.00
7894;DHT22;51343;51.396;6.656;2023-05-10T12:21:45;16.30;1.00
7894;DHT22;51343;51.396;6.656;2023-05-10T12:24:11;16.40;1.00
7894;DHT22;51343;51.396;6.656;2023-05-10T12:26:39;16.50;1.00
7894;DHT22;51343;51.396;6.656;2023-05-10T12:29:13;16.60;99.90
7894;DHT22;51343;51.396;6.656;2023-05-10T12:31:52;16.60;1.00
7894;DHT22;51343;51.396;6.656;2023-05-10T12:34:23;16.70;1.00
7894;DHT22;51343;51.396;6.656;2023-05-10T12:36:50;16.90;99.90
7894;DHT22;51343;51.396;6.656;2023-05-10T12:39:16;17.10;1.00
7894;DHT22;51343;51.396;6.656;2023-05-10T12:41:43;17.30;99.90
7894;DHT22;51343;51.396;6.656;2023-05-10T12:44:10;17.40;1.00
7894;DHT22;51343;51.396;6.656;2023-05-10T12:46:37;17.60;1.00
7894;DHT22;51343;51.396;6.656;2023-05-10T12:49:05;18.10;1.00
7894;DHT22;51343;51.396;6.656;2023-05-10T12:51:32;19.10;1.00
7894;DHT22;51343;51.396;6.656;2023-05-10T12:54:00;19.40;1.00
7894;DHT22;51343;51.396;6.656;2023-05-10T12:56:27;19.20;1.00
7894;DHT22;51343;51.396;6.656;2023-05-10T12:58:53;19.00;1.00
7894;DHT22;51343;51.396;6.656;2023-05-10T13:01:20;18.90;99.90
7894;DHT22;51343;51.396;6.656;2023-05-10T13:03:47;18.60;99.90
7894;DHT22;51343;51.396;6.656;2023-05-10T13:06:15;18.80;99.90
7894;DHT22;51343;51.396;6.656;2023-05-10T13:08:41;18.80;1.00
7894;DHT22;51343;51.396;6.656;2023-05-10T13:11:08;18.90;1.00
7894;DHT22;51343;51.396;6.656;2023-05-10T13:13:35;18.90;1.00
7894;DHT22;51343;51.396;6.656;2023-05-10T13:16:02;19.20;99.90
7894;DHT22;51343;51.396;6.656;2023-05-10T13:18:29;19.30;99.90
7894;DHT22;51343;51.396;6.656;2023-05-10T13:20:55;19.50;67.90
7894;DHT22;51343;51.396;6.656;2023-05-10T13:23:23;19.70;1.00
7894;DHT22;51343;51.396;6.656;2023-05-10T13:25:50;19.40;1.00
7894;DHT22;51343;51.396;6.656;2023-05-10T13:28:17;19.10;99.90
7894;DHT22;51343;51.396;6.656;2023-05-10T13:30:43;19.10;99.90
7894;DHT22;51343;51.396;6.656;2023-05-10T13:33:10;19.20;99.90
7894;DHT22;51343;51.396;6.656;2023-05-10T13:35:37;19.30;1.00
7894;DHT22;51343;51.396;6.656;2023-05-10T13:38:03;19.40;1.00
7894;DHT22;51343;51.396;6.656;2023-05-10T13:40:34;19.40;1.00
7894;DHT22;51343;51.396;6.656;2023-05-10T13:43:01;19.20;99.90
7894;DHT22;51343;51.396;6.656;2023-05-10T13:45:27;19.20;99.90
7894;DHT22;51343;51.396;6.656;2023-05-10T13:47:54;19.10;99.90
7894;DHT22;51343;51.396;6.656;2023-05-10T13:50:21;19.10;99.90
7894;DHT22;51343;51.396;6.656;2023-05-10T13:52:47;19.10;99.90
7894;DHT22;51343;51.396;6.656;2023-05-10T13:55:14;19.30;1.00
7894;DHT22;51343;51.396;6.656;2023-05-10T13:57:42;19.40;1.00
7894;DHT22;51343;51.396;6.656;2023-05-10T14:00:09;19.50;99.90
7894;DHT22;51343;51.396;6.656;2023-05-10T14:02:36;19.50;1.00
7894;DHT22;51343;51.396;6.656;2023-05-10T14:05:03;19.30;99.90
7894;DHT22;51343;51.396;6.656;2023-05-10T14:07:30;18.90;99.90
7894;DHT22;51343;51.396;6.656;2023-05-10T14:09:56;18.60;99.90
7894;DHT22;51343;51.396;6.656;2023-05-10T14:12:23;18.40;99.90
7894;DHT22;51343;51.396;6.656;2023-05-10T14:14:51;18.40;99.90
7894;DHT22;51343;51.396;6.656;2023-05-10T14:17:18;18.30;82.90
7894;DHT22;51343;51.396;6.656;2023-05-10T14:19:45;18.50;99.90
7894;DHT22;51343;51.396;6.656;2023-05-10T14:22:11;18.70;99.90
7894;DHT22;51343;51.396;6.656;2023-05-10T14:24:38;19.10;99.90
7894;DHT22;51343;51.396;6.656;2023-05-10T14:27:06;19.20;99.90
7894;DHT22;51343;51.396;6.656;2023-05-10T14:29:32;19.10;99.90
7894;DHT22;51343;51.396;6.656;2023-05-10T14:32:00;18.80;99.90
7894;DHT22;51343;51.396;6.656;2023-05-10T14:34:28;18.60;99.90
7894;DHT22;51343;51.396;6.656;2023-05-10T14:36:54;18.50;1.00
7894;DHT22;51343;51.396;6.656;2023-05-10T14:39:21;18.50;1.00
7894;DHT22;51343;51.396;6.656;2023-05-10T14:41:48;18.70;99.90
7894;DHT22;51343;51.396;6.656;2023-05-10T14:44:16;18.80;1.00
7894;DHT22;51343;51.396;6.656;2023-05-10T14:46:43;18.90;99.90
7894;DHT22;51343;51.396;6.656;2023-05-10T14:49:11;18.90;99.90
7894;DHT22;51343;51.396;6.656;2023-05-10T14:51:38;18.70;1.00
7894;DHT22;51343;51.396;6.656;2023-05-10T14:54:05;18.50;99.90
7894;DHT22;51343;51.396;6.656;2023-05-10T14:56:31;18.50;99.90
7894;DHT22;51343;51.396;6.656;2023-05-10T14:58:58;18.70;1.00
7894;DHT22;51343;51.396;6.656;2023-05-10T15:01:25;18.60;1.00
7894;DHT22;51343;51.396;6.656;2023-05-10T15:03:52;18.50;1.00
7894;DHT22;51343;51.396;6.656;2023-05-10T15:06:23;18.40;1.00
7894;DHT22;51343;51.396;6.656;2023-05-10T15:08:51;18.30;1.00
7894;DHT22;51343;51.396;6.656;2023-05-10T15:11:18;18.00;1.00
7894;DHT22;51343;51.396;6.656;2023-05-10T15:13:45;17.50;94.50
7894;DHT22;51343;51.396;6.656;2023-05-10T15:16:12;17.10;1.00
7894;DHT22;51343;51.396;6.656;2023-05-10T15:18:41;16.90;99.90
7894;DHT22;51343;51.396;6.656;2023-05-10T15:21:07;16.60;49.90
7894;DHT22;51343;51.396;6.656;2023-05-10T15:23:35;16.30;99.90
7894;DHT22;51343;51.396;6.656;2023-05-10T15:26:02;16.10;99.90
7894;DHT22;51343;51.396;6.656;2023-05-10T15:28:29;15.80;1.00
7894;DHT22;51343;51.396;6.656;2023-05-10T15:30:55;15.70;1.00
7894;DHT22;51343;51.396;6.656;2023-05-10T15:33:22;15.50;1.00
7894;DHT22;51343;51.396;6.656;2023-05-10T15:35:49;15.20;99.90
7894;DHT22;51343;51.396;6.656;2023-05-10T15:38:16;15.00;99.90
7894;DHT22;51343;51.396;6.656;2023-05-10T15:40:45;14.80;99.90
7894;DHT22;51343;51.396;6.656;2023-05-10T15:43:12;14.70;1.00
7894;DHT22;51343;51.396;6.656;2023-05-10T15:45:41;14.60;43.10
7894;DHT22;51343;51.396;6.656;2023-05-10T15:48:07;14.40;1.00
7894;DHT22;51343;51.396;6.656;2023-05-10T15:50:35;14.20;99.90
7894;DHT22;51343;51.396;6.656;2023-05-10T15:53:02;14.10;1.00
7894;DHT22;51343;51.396;6.656;2023-05-10T15:55:35;13.90;1.00
7894;DHT22;51343;51.396;6.656;2023-05-10T15:58:03;13.70;99.90
7894;DHT22;51343;51.396;6.656;2023-05-10T16:00:29;13.60;99.90
7894;DHT22;51343;51.396;6.656;2023-05-10T16:02:56;13.50;99.90
7894;DHT22;51343;51.396;6.656;2023-05-10T16:05:23;13.50;99.90
7894;DHT22;51343;51.396;6.656;2023-05-10T16:07:54;13.50;99.90
7894;DHT22;51343;51.396;6.656;2023-05-10T16:10:21;13.40;99.90